sensor_id;sensor_type;location;lat;lon;timestamp;temperature;humidity
15906;DHT22;8051;50.820;4.884;2023-06-14T00:01:06;20.10;94.10
15906;DHT22;8051;50.820;4.884;2023-06-14T00:03:35;20.00;94.20
15906;DHT22;8051;50.820;4.884;2023-06-14T00:06:02;20.00;94.40
15906;DHT22;8051;50.820;4.884;2023-06-14T00:08:30;19.90;94.40
15906;DHT22;8051;50.820;4.884;2023-06-14T00:10:58;19.90;94.50
15906;DHT22;8051;50.820;4.884;2023-06-14T00:13:27;19.90;94.60
15906;DHT22;8051;50.820;4.884;2023-06-14T00:15:54;19.90;94.70
15906;DHT22;8051;50.820;4.884;2023-06-14T00:18:22;19.80;94.70
15906;DHT22;8051;50.820;4.884;2023-06-14T00:20:52;19.90;94.70
15906;DHT22;8051;50.820;4.884;2023-06-14T00:23:19;19.80;94.60
15906;DHT22;8051;50.820;4.884;2023-06-14T00:25:47;19.80;94.60
15906;DHT22;8051;50.820;4.884;2023-06-14T00:28:14;19.80;94.70
15906;DHT22;8051;50.820;4.884;2023-06-14T00:30:43;19.80;94.80
15906;DHT22;8051;50.820;4.884;2023-06-14T00:33:12;19.70;94.90
15906;DHT22;8051;50.820;4.884;2023-06-14T00:35:39;19.70;94.90
15906;DHT22;8051;50.820;4.884;2023-06-14T00:38:07;19.70;95.00
15906;DHT22;8051;50.820;4.884;2023-06-14T00:40:34;19.60;95.10
15906;DHT22;8051;50.820;4.884;2023-06-14T00:43:01;19.60;95.20
15906;DHT22;8051;50.820;4.884;2023-06-14T00:45:29;19.60;95.40
15906;DHT22;8051;50.820;4.884;2023-06-14T00:48:00;19.50;95.70
15906;DHT22;8051;50.820;4.884;2023-06-14T00:50:28;19.50;95.40
15906;DHT22;8051;50.820;4.884;2023-06-14T00:52:58;19.50;95.40
15906;DHT22;8051;50.820;4.884;2023-06-14T00:55:25;19.40;95.40
15906;DHT22;8051;50.820;4.884;2023-06-14T00:57:54;19.50;95.50
15906;DHT22;8051;50.820;4.884;2023-06-14T01:00:21;19.40;95.50
15906;DHT22;8051;50.820;4.884;2023-06-14T01:02:49;19.40;95.60
15906;DHT22;8051;50.820;4.884;2023-06-14T01:05:18;19.40;95.70
15906;DHT22;8051;50.820;4.884;2023-06-14T01:07:59;19.30;95.70
15906;DHT22;8051;50.820;4.884;2023-06-14T01:10:36;19.30;95.80
15906;DHT22;8051;50.820;4.884;2023-06-14T01:13:12;19.30;95.80
15906;DHT22;8051;50.820;4.884;2023-06-14T01:15:43;19.30;95.90
15906;DHT22;8051;50.820;4.884;2023-06-14T01:18:11;19.20;96.00
15906;DHT22;8051;50.820;4.884;2023-06-14T01:20:46;19.20;96.10
15906;DHT22;8051;50.820;4.884;2023-06-14T01:23:16;19.20;96.20
15906;DHT22;8051;50.820;4.884;2023-06-14T01:25:43;19.10;96.20
15906;DHT22;8051;50.820;4.884;2023-06-14T01:28:13;19.10;96.30
15906;DHT22;8051;50.820;4.884;2023-06-14T01:30:44;19.00;96.40
15906;DHT22;8051;50.820;4.884;2023-06-14T01:33:12;19.00;96.60
15906;DHT22;8051;50.820;4.884;2023-06-14T01:35:42;18.90;96.70
15906;DHT22;8051;50.820;4.884;2023-06-14T01:38:09;18.90;96.90
15906;DHT22;8051;50.820;4.884;2023-06-14T01:40:39;18.80;97.00
15906;DHT22;8051;50.820;4.884;2023-06-14T01:43:07;18.70;97.10
15906;DHT22;8051;50.820;4.884;2023-06-14T01:45:35;18.70;97.40
15906;DHT22;8051;50.820;4.884;2023-06-14T01:48:04;18.60;97.50
15906;DHT22;8051;50.820;4.884;2023-06-14T01:50:32;18.50;97.60
15906;DHT22;8051;50.820;4.884;2023-06-14T01:52:59;18.50;97.80
15906;DHT22;8051;50.820;4.884;2023-06-14T01:55:27;18.50;97.80
15906;DHT22;8051;50.820;4.884;2023-06-14T01:57:56;18.40;97.90
15906;DHT22;8051;50.820;4.884;2023-06-14T02:00:24;18.40;98.00
15906;DHT22;8051;50.820;4.884;2023-06-14T02:02:52;18.40;98.10
15906;DHT22;8051;50.820;4.884;2023-06-14T02:05:19;18.40;98.20
15906;DHT22;8051;50.820;4.884;2023-06-14T02:07:47;18.40;98.30
15906;DHT22;8051;50.820;4.884;2023-06-14T02:10:14;18.30;98.40
15906;DHT22;8051;50.820;4.884;2023-06-14T02:12:43;18.30;98.50
15906;DHT22;8051;50.820;4.884;2023-06-14T02:15:13;18.30;98.40
15906;DHT22;8051;50.820;4.884;2023-06-14T02:17:44;18.30;98.50
15906;DHT22;8051;50.820;4.884;2023-06-14T02:20:13;18.30;98.50
15906;DHT22;8051;50.820;4.884;2023-06-14T02:22:41;18.30;98.50
15906;DHT22;8051;50.820;4.884;2023-06-14T02:25:09;18.20;98.60
15906;DHT22;8051;50.820;4.884;2023-06-14T02:27:36;18.20;98.70
15906;DHT22;8051;50.820;4.884;2023-06-14T02:30:04;18.20;98.80
15906;DHT22;8051;50.820;4.884;2023-06-14T02:32:33;18.10;99.00
15906;DHT22;8051;50.820;4.884;2023-06-14T02:35:01;18.10;99.30
15906;DHT22;8051;50.820;4.884;2023-06-14T02:37:29;18.10;99.50
15906;DHT22;8051;50.820;4.884;2023-06-14T02:39:56;18.00;99.70
15906;DHT22;8051;50.820;4.884;2023-06-14T02:42:24;17.90;99.90
15906;DHT22;8051;50.820;4.884;2023-06-14T02:44:51;17.90;99.90
15906;DHT22;8051;50.820;4.884;2023-06-14T02:47:19;17.80;99.90
15906;DHT22;8051;50.820;4.884;2023-06-14T02:49:48;17.70;99.90
15906;DHT22;8051;50.820;4.884;2023-06-14T02:52:15;17.70;99.90
15906;DHT22;8051;50.820;4.884;2023-06-14T02:54:43;17.60;99.90
15906;DHT22;8051;50.820;4.884;2023-06-14T02:57:12;17.60;99.90
15906;DHT22;8051;50.820;4.884;2023-06-14T02:59:39;17.60;99.90
15906;DHT22;8051;50.820;4.884;2023-06-14T03:02:06;17.50;99.90
15906;DHT22;8051;50.820;4.884;2023-06-14T03:04:34;17.50;99.90
15906;DHT22;8051;50.820;4.884;2023-06-14T03:07:04;17.50;99.90
15906;DHT22;8051;50.820;4.884;2023-06-14T03:09:36;17.50;99.90
15906;DHT22;8051;50.820;4.884;2023-06-14T03:12:04;17.50;99.90
15906;DHT22;8051;50.820;4.884;2023-06-14T03:14:33;17.40;99.90
15906;DHT22;8051;50.820;4.884;2023-06-14T03:17:01;17.30;99.90
15906;DHT22;8051;50.820;4.884;2023-06-14T03:19:28;17.30;99.90
15906;DHT22;8051;50.820;4.884;2023-06-14T03:21:56;17.20;99.90
15906;DHT22;8051;50.820;4.884;2023-06-14T03:24:25;17.20;99.90
15906;DHT22;8051;50.820;4.884;2023-06-14T03:26:54;17.20;99.90
15906;DHT22;8051;50.820;4.884;2023-06-14T03:29:22;17.20;99.90
15906;DHT22;8051;50.820;4.884;2023-06-14T03:31:59;17.10;99.90
15906;DHT22;8051;50.820;4.884;2023-06-14T03:34:27;17.10;99.90
15906;DHT22;8051;50.820;4.884;2023-06-14T03:36:55;17.10;99.90
15906;DHT22;8051;50.820;4.884;2023-06-14T03:39:22;17.10;99.90
15906;DHT22;8051;50.820;4.884;2023-06-14T03:41:51;17.00;99.90
15906;DHT22;8051;50.820;4.884;2023-06-14T03:44:19;17.00;99.90
15906;DHT22;8051;50.820;4.884;2023-06-14T03:46:46;17.00;99.90
15906;DHT22;8051;50.820;4.884;2023-06-14T03:49:14;16.90;99.90
15906;DHT22;8051;50.820;4.884;2023-06-14T03:51:43;16.90;99.90
15906;DHT22;8051;50.820;4.884;2023-06-14T03:54:10;16.90;99.90
15906;DHT22;8051;50.820;4.884;2023-06-14T03:56:38;16.90;99.90
15906;DHT22;8051;50.820;4.884;2023-06-14T03:59:07;16.90;99.90
15906;DHT22;8051;50.820;4.884;2023-06-14T04:01:34;17.00;99.90
15906;DHT22;8051;50.820;4.884;2023-06-14T04:04:02;17.00;99.90
15906;DHT22;8051;50.820;4.884;2023-06-14T04:06:30;17.10;99.90
15906;DHT22;8051;50.820;4.884;2023-06-14T04:08:59;17.30;99.90
15906;DHT22;8051;50.820;4.884;2023-06-14T04:11:30;17.40;99.90
15906;DHT22;8051;50.820;4.884;2023-06-14T04:13:58;17.60;99.90
15906;DHT22;8051;50.820;4.884;2023-06-14T04:16:27;17.80;99.90
15906;DHT22;8051;50.820;4.884;2023-06-14T04:18:55;17.90;99.90
15906;DHT22;8051;50.820;4.884;2023-06-14T04:21:24;18.20;99.90
15906;DHT22;8051;50.820;4.884;2023-06-14T04:23:52;18.40;99.90
15906;DHT22;8051;50.820;4.884;2023-06-14T04:26:21;18.70;99.90
15906;DHT22;8051;50.820;4.884;2023-06-14T04:28:49;18.80;99.90
15906;DHT22;8051;50.820;4.884;2023-06-14T04:31:17;19.00;99.90
15906;DHT22;8051;50.820;4.884;2023-06-14T04:33:48;19.20;99.90
15906;DHT22;8051;50.820;4.884;2023-06-14T04:36:16;19.20;99.90
15906;DHT22;8051;50.820;4.884;2023-06-14T04:38:44;19.40;99.90
15906;DHT22;8051;50.820;4.884;2023-06-14T04:41:12;19.70;99.90
15906;DHT22;8051;50.820;4.884;2023-06-14T04:43:39;19.80;99.90
15906;DHT22;8051;50.820;4.884;2023-06-14T04:46:08;19.90;99.90
15906;DHT22;8051;50.820;4.884;2023-06-14T04:48:38;20.20;99.90
15906;DHT22;8051;50.820;4.884;2023-06-14T04:51:08;20.20;99.90
15906;DHT22;8051;50.820;4.884;2023-06-14T04:53:36;20.20;99.90
15906;DHT22;8051;50.820;4.884;2023-06-14T04:56:04;20.40;99.90
15906;DHT22;8051;50.820;4.884;2023-06-14T04:58:31;20.30;99.90
15906;DHT22;8051;50.820;4.884;2023-06-14T05:00:59;20.20;99.90
15906;DHT22;8051;50.820;4.884;2023-06-14T05:03:28;20.30;99.90
15906;DHT22;8051;50.820;4.884;2023-06-14T05:05:56;20.40;99.90
15906;DHT22;8051;50.820;4.884;2023-06-14T05:08:25;20.50;99.90
15906;DHT22;8051;50.820;4.884;2023-06-14T05:10:52;20.70;99.90
15906;DHT22;8051;50.820;4.884;2023-06-14T05:13:20;20.90;99.90
15906;DHT22;8051;50.820;4.884;2023-06-14T05:15:48;21.30;99.90
15906;DHT22;8051;50.820;4.884;2023-06-14T05:18:16;21.50;99.90
15906;DHT22;8051;50.820;4.884;2023-06-14T05:20:43;21.60;99.90
15906;DHT22;8051;50.820;4.884;2023-06-14T05:23:12;21.70;99.90
15906;DHT22;8051;50.820;4.884;2023-06-14T05:25:44;21.30;99.90
15906;DHT22;8051;50.820;4.884;2023-06-14T05:28:11;21.40;99.90
15906;DHT22;8051;50.820;4.884;2023-06-14T05:30:39;21.40;99.90
15906;DHT22;8051;50.820;4.884;2023-06-14T05:33:06;21.20;99.90
15906;DHT22;8051;50.820;4.884;2023-06-14T05:35:34;21.30;99.90
15906;DHT22;8051;50.820;4.884;2023-06-14T05:38:02;21.20;99.90
15906;DHT22;8051;50.820;4.884;2023-06-14T05:40:29;21.10;99.90
15906;DHT22;8051;50.820;4.884;2023-06-14T05:42:58;21.10;99.90
15906;DHT22;8051;50.820;4.884;2023-06-14T05:45:25;21.20;99.90
15906;DHT22;8051;50.820;4.884;2023-06-14T05:47:53;21.10;99.90
15906;DHT22;8051;50.820;4.884;2023-06-14T05:50:21;21.30;99.90
15906;DHT22;8051;50.820;4.884;2023-06-14T05:52:48;21.60;99.90
15906;DHT22;8051;50.820;4.884;2023-06-14T05:55:16;22.00;99.90
15906;DHT22;8051;50.820;4.884;2023-06-14T05:57:44;22.00;99.90
15906;DHT22;8051;50.820;4.884;2023-06-14T06:00:14;22.10;99.90
15906;DHT22;8051;50.820;4.884;2023-06-14T06:02:42;22.30;99.90
15906;DHT22;8051;50.820;4.884;2023-06-14T06:05:11;22.60;99.90
15906;DHT22;8051;50.820;4.884;2023-06-14T06:07:39;22.70;99.90
15906;DHT22;8051;50.820;4.884;2023-06-14T06:10:07;22.60;99.90
15906;DHT22;8051;50.820;4.884;2023-06-14T06:12:35;22.40;99.90
15906;DHT22;8051;50.820;4.884;2023-06-14T06:15:03;22.60;99.90
15906;DHT22;8051;50.820;4.884;2023-06-14T06:17:32;22.70;99.90
15906;DHT22;8051;50.820;4.884;2023-06-14T06:19:59;22.70;99.90
15906;DHT22;8051;50.820;4.884;2023-06-14T06:22:27;22.60;99.90
15906;DHT22;8051;50.820;4.884;2023-06-14T06:24:54;22.30;99.90
15906;DHT22;8051;50.820;4.884;2023-06-14T06:27:22;22.30;99.90
15906;DHT22;8051;50.820;4.884;2023-06-14T06:29:49;22.20;99.90
15906;DHT22;8051;50.820;4.884;2023-06-14T06:32:17;21.90;99.90
15906;DHT22;8051;50.820;4.884;2023-06-14T06:34:47;21.70;99.90
15906;DHT22;8051;50.820;4.884;2023-06-14T06:37:14;21.70;99.90
15906;DHT22;8051;50.820;4.884;2023-06-14T06:39:42;21.60;99.90
15906;DHT22;8051;50.820;4.884;2023-06-14T06:42:09;21.50;99.90
15906;DHT22;8051;50.820;4.884;2023-06-14T06:44:37;21.60;99.90
15906;DHT22;8051;50.820;4.884;2023-06-14T06:47:05;21.60;99.90
15906;DHT22;8051;50.820;4.884;2023-06-14T06:49:32;21.70;99.90
15906;DHT22;8051;50.820;4.884;2023-06-14T06:52:03;21.80;99.90
15906;DHT22;8051;50.820;4.884;2023-06-14T06:54:30;21.80;99.90
15906;DHT22;8051;50.820;4.884;2023-06-14T06:56:58;21.90;99.90
15906;DHT22;8051;50.820;4.884;2023-06-14T06:59:25;22.00;99.90
15906;DHT22;8051;50.820;4.884;2023-06-14T07:01:53;22.00;99.90
15906;DHT22;8051;50.820;4.884;2023-06-14T07:04:20;22.00;99.90
15906;DHT22;8051;50.820;4.884;2023-06-14T07:06:48;22.00;99.90
15906;DHT22;8051;50.820;4.884;2023-06-14T07:09:17;22.10;99.90
15906;DHT22;8051;50.820;4.884;2023-06-14T07:11:46;22.10;99.90
15906;DHT22;8051;50.820;4.884;2023-06-14T07:14:13;22.30;99.90
15906;DHT22;8051;50.820;4.884;2023-06-14T07:16:41;22.50;99.90
15906;DHT22;8051;50.820;4.884;2023-06-14T07:19:09;22.70;99.90
15906;DHT22;8051;50.820;4.884;2023-06-14T07:21:37;22.90;99.90
15906;DHT22;8051;50.820;4.884;2023-06-14T07:24:05;23.00;99.90
15906;DHT22;8051;50.820;4.884;2023-06-14T07:26:35;23.00;99.90
15906;DHT22;8051;50.820;4.884;2023-06-14T07:29:02;23.10;99.90
15906;DHT22;8051;50.820;4.884;2023-06-14T07:31:30;23.00;99.90
15906;DHT22;8051;50.820;4.884;2023-06-14T07:33:58;22.90;99.90
15906;DHT22;8051;50.820;4.884;2023-06-14T07:36:25;22.80;99.90
15906;DHT22;8051;50.820;4.884;2023-06-14T07:38:53;22.80;99.90
15906;DHT22;8051;50.820;4.884;2023-06-14T07:41:20;22.80;99.90
15906;DHT22;8051;50.820;4.884;2023-06-14T07:43:49;23.00;99.90
15906;DHT22;8051;50.820;4.884;2023-06-14T07:46:17;23.20;99.90
15906;DHT22;8051;50.820;4.884;2023-06-14T07:48:44;23.20;99.90
15906;DHT22;8051;50.820;4.884;2023-06-14T07:51:12;23.20;99.90
15906;DHT22;8051;50.820;4.884;2023-06-14T07:53:39;23.30;99.90
15906;DHT22;8051;50.820;4.884;2023-06-14T07:56:08;23.10;99.90
15906;DHT22;8051;50.820;4.884;2023-06-14T07:58:36;23.10;99.90
15906;DHT22;8051;50.820;4.884;2023-06-14T08:01:05;23.00;99.90
15906;DHT22;8051;50.820;4.884;2023-06-14T08:03:33;23.10;99.90
15906;DHT22;8051;50.820;4.884;2023-06-14T08:06:01;23.10;99.90
15906;DHT22;8051;50.820;4.884;2023-06-14T08:08:30;23.10;99.90
15906;DHT22;8051;50.820;4.884;2023-06-14T08:10:57;23.30;99.90
15906;DHT22;8051;50.820;4.884;2023-06-14T08:13:25;23.30;99.90
15906;DHT22;8051;50.820;4.884;2023-06-14T08:15:52;23.30;99.90
15906;DHT22;8051;50.820;4.884;2023-06-14T08:18:21;23.10;99.90
15906;DHT22;8051;50.820;4.884;2023-06-14T08:20:49;23.20;99.90
15906;DHT22;8051;50.820;4.884;2023-06-14T08:23:18;23.30;99.90
15906;DHT22;8051;50.820;4.884;2023-06-14T08:25:47;23.30;99.90
15906;DHT22;8051;50.820;4.884;2023-06-14T08:28:14;23.30;99.90
15906;DHT22;8051;50.820;4.884;2023-06-14T08:30:42;23.30;99.90
15906;DHT22;8051;50.820;4.884;2023-06-14T08:33:10;23.30;99.90
15906;DHT22;8051;50.820;4.884;2023-06-14T08:35:38;23.40;99.90
15906;DHT22;8051;50.820;4.884;2023-06-14T08:38:06;23.30;99.90
15906;DHT22;8051;50.820;4.884;2023-06-14T08:40:37;23.20;99.90
15906;DHT22;8051;50.820;4.884;2023-06-14T08:43:05;23.30;99.90
15906;DHT22;8051;50.820;4.884;2023-06-14T08:45:33;23.30;99.90
15906;DHT22;8051;50.820;4.884;2023-06-14T08:48:00;23.40;99.90
15906;DHT22;8051;50.820;4.884;2023-06-14T08:50:28;23.60;99.90
15906;DHT22;8051;50.820;4.884;2023-06-14T08:53:00;23.70;99.90
15906;DHT22;8051;50.820;4.884;2023-06-14T08:55:29;23.90;99.90
15906;DHT22;8051;50.820;4.884;2023-06-14T08:57:57;23.90;99.90
15906;DHT22;8051;50.820;4.884;2023-06-14T09:00:26;23.90;99.90
15906;DHT22;8051;50.820;4.884;2023-06-14T09:02:54;23.90;99.90
15906;DHT22;8051;50.820;4.884;2023-06-14T09:05:23;24.00;99.90
15906;DHT22;8051;50.820;4.884;2023-06-14T09:07:51;24.00;99.90
15906;DHT22;8051;50.820;4.884;2023-06-14T09:10:22;23.90;99.90
15906;DHT22;8051;50.820;4.884;2023-06-14T09:12:51;23.90;99.90
15906;DHT22;8051;50.820;4.884;2023-06-14T09:15:19;24.00;99.90
15906;DHT22;8051;50.820;4.884;2023-06-14T09:17:48;24.00;99.90
15906;DHT22;8051;50.820;4.884;2023-06-14T09:20:15;24.20;99.90
15906;DHT22;8051;50.820;4.884;2023-06-14T09:22:44;24.30;99.90
15906;DHT22;8051;50.820;4.884;2023-06-14T09:25:12;24.40;99.90
15906;DHT22;8051;50.820;4.884;2023-06-14T09:27:42;24.40;99.60
15906;DHT22;8051;50.820;4.884;2023-06-14T09:30:10;24.30;99.70
15906;DHT22;8051;50.820;4.884;2023-06-14T09:32:39;24.40;99.80
15906;DHT22;8051;50.820;4.884;2023-06-14T09:35:08;24.40;99.00
15906;DHT22;8051;50.820;4.884;2023-06-14T09:37:36;24.50;99.20
15906;DHT22;8051;50.820;4.884;2023-06-14T09:40:05;24.50;98.60
15906;DHT22;8051;50.820;4.884;2023-06-14T09:42:33;24.50;99.10
15906;DHT22;8051;50.820;4.884;2023-06-14T09:45:04;24.60;98.80
15906;DHT22;8051;50.820;4.884;2023-06-14T09:47:32;24.70;98.50
15906;DHT22;8051;50.820;4.884;2023-06-14T09:49:59;24.70;97.50
15906;DHT22;8051;50.820;4.884;2023-06-14T09:52:27;24.80;97.70
15906;DHT22;8051;50.820;4.884;2023-06-14T09:54:56;24.80;97.80
15906;DHT22;8051;50.820;4.884;2023-06-14T09:57:26;24.90;97.60
15906;DHT22;8051;50.820;4.884;2023-06-14T09:59:57;25.00;97.10
15906;DHT22;8051;50.820;4.884;2023-06-14T10:02:30;24.80;96.50
15906;DHT22;8051;50.820;4.884;2023-06-14T10:05:02;25.00;97.00
15906;DHT22;8051;50.820;4.884;2023-06-14T10:07:35;24.90;97.30
15906;DHT22;8051;50.820;4.884;2023-06-14T10:10:06;24.90;97.00
15906;DHT22;8051;50.820;4.884;2023-06-14T10:12:33;24.90;97.30
15906;DHT22;8051;50.820;4.884;2023-06-14T10:15:01;24.80;96.20
15906;DHT22;8051;50.820;4.884;2023-06-14T10:17:39;24.80;96.80
15906;DHT22;8051;50.820;4.884;2023-06-14T10:20:18;24.80;97.00
15906;DHT22;8051;50.820;4.884;2023-06-14T10:22:54;25.00;96.90
15906;DHT22;8051;50.820;4.884;2023-06-14T10:25:27;25.20;95.70
15906;DHT22;8051;50.820;4.884;2023-06-14T10:28:19;25.20;95.40
15906;DHT22;8051;50.820;4.884;2023-06-14T10:31:07;25.20;95.20
15906;DHT22;8051;50.820;4.884;2023-06-14T10:33:39;25.30;95.30
15906;DHT22;8051;50.820;4.884;2023-06-14T10:36:23;25.40;94.40
15906;DHT22;8051;50.820;4.884;2023-06-14T10:39:04;25.40;94.10
15906;DHT22;8051;50.820;4.884;2023-06-14T10:41:35;25.30;94.10
15906;DHT22;8051;50.820;4.884;2023-06-14T10:47:26;25.40;94.80
15906;DHT22;8051;50.820;4.884;2023-06-14T10:49:57;25.40;93.30
15906;DHT22;8051;50.820;4.884;2023-06-14T10:52:31;25.10;93.10
15906;DHT22;8051;50.820;4.884;2023-06-14T10:55:09;25.00;93.50
15906;DHT22;8051;50.820;4.884;2023-06-14T10:57:40;25.10;92.90
15906;DHT22;8051;50.820;4.884;2023-06-14T11:00:09;25.20;93.50
15906;DHT22;8051;50.820;4.884;2023-06-14T11:05:52;25.20;93.50
15906;DHT22;8051;50.820;4.884;2023-06-14T11:08:47;25.50;93.10
15906;DHT22;8051;50.820;4.884;2023-06-14T11:11:18;25.30;92.60
15906;DHT22;8051;50.820;4.884;2023-06-14T11:13:49;25.40;93.60
15906;DHT22;8051;50.820;4.884;2023-06-14T11:16:18;25.50;93.90
15906;DHT22;8051;50.820;4.884;2023-06-14T11:18:46;25.60;93.80
15906;DHT22;8051;50.820;4.884;2023-06-14T11:21:19;25.70;93.10
15906;DHT22;8051;50.820;4.884;2023-06-14T11:23:50;25.60;93.50
15906;DHT22;8051;50.820;4.884;2023-06-14T11:26:25;25.80;94.00
15906;DHT22;8051;50.820;4.884;2023-06-14T11:28:56;25.80;93.00
15906;DHT22;8051;50.820;4.884;2023-06-14T11:31:24;25.90;92.70
15906;DHT22;8051;50.820;4.884;2023-06-14T11:33:53;25.90;92.90
15906;DHT22;8051;50.820;4.884;2023-06-14T11:36:22;26.00;93.20
15906;DHT22;8051;50.820;4.884;2023-06-14T11:38:58;25.90;92.40
15906;DHT22;8051;50.820;4.884;2023-06-14T11:41:25;25.70;93.10
15906;DHT22;8051;50.820;4.884;2023-06-14T11:44:00;25.80;93.40
15906;DHT22;8051;50.820;4.884;2023-06-14T11:46:27;25.80;92.80
15906;DHT22;8051;50.820;4.884;2023-06-14T11:48:54;25.80;92.70
15906;DHT22;8051;50.820;4.884;2023-06-14T11:51:22;25.60;92.10
15906;DHT22;8051;50.820;4.884;2023-06-14T11:53:50;25.70;92.80
15906;DHT22;8051;50.820;4.884;2023-06-14T11:56:17;25.80;92.50
15906;DHT22;8051;50.820;4.884;2023-06-14T11:58:44;26.00;92.10
15906;DHT22;8051;50.820;4.884;2023-06-14T12:01:16;25.90;92.10
15906;DHT22;8051;50.820;4.884;2023-06-14T12:03:48;25.90;91.90
15906;DHT22;8051;50.820;4.884;2023-06-14T12:06:15;25.70;91.60
15906;DHT22;8051;50.820;4.884;2023-06-14T12:08:45;25.70;91.10
15906;DHT22;8051;50.820;4.884;2023-06-14T12:11:15;25.70;91.80
15906;DHT22;8051;50.820;4.884;2023-06-14T12:13:43;25.90;90.70
15906;DHT22;8051;50.820;4.884;2023-06-14T12:16:12;25.90;91.30
15906;DHT22;8051;50.820;4.884;2023-06-14T12:18:40;26.00;90.90
15906;DHT22;8051;50.820;4.884;2023-06-14T12:21:09;26.10;90.60
15906;DHT22;8051;50.820;4.884;2023-06-14T12:23:44;25.90;90.80
15906;DHT22;8051;50.820;4.884;2023-06-14T12:26:13;26.10;90.20
15906;DHT22;8051;50.820;4.884;2023-06-14T12:28:42;26.20;89.40
15906;DHT22;8051;50.820;4.884;2023-06-14T12:31:11;26.20;89.80
15906;DHT22;8051;50.820;4.884;2023-06-14T12:33:39;26.20;88.50
15906;DHT22;8051;50.820;4.884;2023-06-14T12:36:08;26.10;88.20
15906;DHT22;8051;50.820;4.884;2023-06-14T12:38:36;26.10;88.20
15906;DHT22;8051;50.820;4.884;2023-06-14T12:41:04;26.00;88.30
15906;DHT22;8051;50.820;4.884;2023-06-14T12:43:31;26.00;87.50
15906;DHT22;8051;50.820;4.884;2023-06-14T12:45:58;25.90;89.00
15906;DHT22;8051;50.820;4.884;2023-06-14T12:48:26;26.00;88.50
15906;DHT22;8051;50.820;4.884;2023-06-14T12:50:55;26.10;86.80
15906;DHT22;8051;50.820;4.884;2023-06-14T12:53:22;26.00;85.30
15906;DHT22;8051;50.820;4.884;2023-06-14T12:55:49;26.00;87.10
15906;DHT22;8051;50.820;4.884;2023-06-14T12:58:18;26.10;87.40
15906;DHT22;8051;50.820;4.884;2023-06-14T13:00:46;26.10;86.20
15906;DHT22;8051;50.820;4.884;2023-06-14T13:03:13;26.10;84.20
15906;DHT22;8051;50.820;4.884;2023-06-14T13:05:40;25.90;86.90
15906;DHT22;8051;50.820;4.884;2023-06-14T13:08:08;26.20;86.90
15906;DHT22;8051;50.820;4.884;2023-06-14T13:10:36;26.20;85.50
15906;DHT22;8051;50.820;4.884;2023-06-14T13:13:03;26.10;86.40
15906;DHT22;8051;50.820;4.884;2023-06-14T13:15:34;26.20;85.70
15906;DHT22;8051;50.820;4.884;2023-06-14T13:18:01;26.30;85.90
15906;DHT22;8051;50.820;4.884;2023-06-14T13:20:29;26.50;85.70
15906;DHT22;8051;50.820;4.884;2023-06-14T13:22:56;26.50;85.10
15906;DHT22;8051;50.820;4.884;2023-06-14T13:25:23;26.40;84.50
15906;DHT22;8051;50.820;4.884;2023-06-14T13:27:50;26.50;85.20
15906;DHT22;8051;50.820;4.884;2023-06-14T13:30:18;26.70;85.30
15906;DHT22;8051;50.820;4.884;2023-06-14T13:32:47;26.80;82.90
15906;DHT22;8051;50.820;4.884;2023-06-14T13:35:15;26.70;85.90
15906;DHT22;8051;50.820;4.884;2023-06-14T13:37:42;26.70;84.90
15906;DHT22;8051;50.820;4.884;2023-06-14T13:40:10;26.80;84.40
15906;DHT22;8051;50.820;4.884;2023-06-14T13:42:38;27.00;86.50
15906;DHT22;8051;50.820;4.884;2023-06-14T13:45:07;26.90;83.50
15906;DHT22;8051;50.820;4.884;2023-06-14T13:47:35;27.00;85.70
15906;DHT22;8051;50.820;4.884;2023-06-14T13:50:04;26.70;85.00
15906;DHT22;8051;50.820;4.884;2023-06-14T13:52:32;26.60;83.80
15906;DHT22;8051;50.820;4.884;2023-06-14T13:54:59;26.50;84.50
15906;DHT22;8051;50.820;4.884;2023-06-14T13:57:27;26.50;85.10
15906;DHT22;8051;50.820;4.884;2023-06-14T13:59:54;26.40;83.60
15906;DHT22;8051;50.820;4.884;2023-06-14T14:02:29;26.40;84.30
15906;DHT22;8051;50.820;4.884;2023-06-14T14:04:57;26.60;84.80
15906;DHT22;8051;50.820;4.884;2023-06-14T14:07:26;26.70;85.30
15906;DHT22;8051;50.820;4.884;2023-06-14T14:09:54;26.60;83.30
15906;DHT22;8051;50.820;4.884;2023-06-14T14:12:23;26.60;85.20
15906;DHT22;8051;50.820;4.884;2023-06-14T14:14:50;26.60;85.30
15906;DHT22;8051;50.820;4.884;2023-06-14T14:17:18;26.60;85.00
15906;DHT22;8051;50.820;4.884;2023-06-14T14:19:45;26.70;86.70
15906;DHT22;8051;50.820;4.884;2023-06-14T14:22:12;26.60;85.70
15906;DHT22;8051;50.820;4.884;2023-06-14T14:24:41;26.50;86.30
15906;DHT22;8051;50.820;4.884;2023-06-14T14:27:08;26.80;86.70
15906;DHT22;8051;50.820;4.884;2023-06-14T14:29:35;27.00;86.00
15906;DHT22;8051;50.820;4.884;2023-06-14T14:32:03;26.90;85.10
15906;DHT22;8051;50.820;4.884;2023-06-14T14:34:30;27.10;85.10
15906;DHT22;8051;50.820;4.884;2023-06-14T14:36:57;27.30;84.70
15906;DHT22;8051;50.820;4.884;2023-06-14T14:39:24;27.20;85.50
15906;DHT22;8051;50.820;4.884;2023-06-14T14:41:53;27.20;84.50
15906;DHT22;8051;50.820;4.884;2023-06-14T14:44:20;27.10;84.50
15906;DHT22;8051;50.820;4.884;2023-06-14T14:46:47;27.00;86.30
15906;DHT22;8051;50.820;4.884;2023-06-14T14:49:15;26.80;86.00
15906;DHT22;8051;50.820;4.884;2023-06-14T14:51:42;26.80;86.90
15906;DHT22;8051;50.820;4.884;2023-06-14T14:54:10;27.00;87.70
15906;DHT22;8051;50.820;4.884;2023-06-14T14:56:37;26.90;86.60
15906;DHT22;8051;50.820;4.884;2023-06-14T14:59:06;27.10;86.10
15906;DHT22;8051;50.820;4.884;2023-06-14T15:01:34;27.00;85.30
15906;DHT22;8051;50.820;4.884;2023-06-14T15:04:01;26.80;86.50
15906;DHT22;8051;50.820;4.884;2023-06-14T15:06:29;27.00;86.50
15906;DHT22;8051;50.820;4.884;2023-06-14T15:08:57;27.10;86.40
15906;DHT22;8051;50.820;4.884;2023-06-14T15:11:24;27.00;86.30
15906;DHT22;8051;50.820;4.884;2023-06-14T15:13:51;26.90;86.70
15906;DHT22;8051;50.820;4.884;2023-06-14T15:16:20;26.80;85.70
15906;DHT22;8051;50.820;4.884;2023-06-14T15:18:47;26.70;86.30
15906;DHT22;8051;50.820;4.884;2023-06-14T15:21:15;26.70;86.30
15906;DHT22;8051;50.820;4.884;2023-06-14T15:23:45;26.80;86.80
15906;DHT22;8051;50.820;4.884;2023-06-14T15:26:12;26.90;86.90
15906;DHT22;8051;50.820;4.884;2023-06-14T15:28:39;26.80;86.40
15906;DHT22;8051;50.820;4.884;2023-06-14T15:31:07;26.80;85.30
15906;DHT22;8051;50.820;4.884;2023-06-14T15:33:35;27.00;86.00
15906;DHT22;8051;50.820;4.884;2023-06-14T15:36:03;27.90;86.00
15906;DHT22;8051;50.820;4.884;2023-06-14T15:38:31;30.60;85.10
15906;DHT22;8051;50.820;4.884;2023-06-14T15:40:59;33.40;81.60
15906;DHT22;8051;50.820;4.884;2023-06-14T15:43:27;35.20;78.90
15906;DHT22;8051;50.820;4.884;2023-06-14T15:45:54;36.50;76.50
15906;DHT22;8051;50.820;4.884;2023-06-14T15:48:22;35.80;73.90
15906;DHT22;8051;50.820;4.884;2023-06-14T15:50:50;35.20;73.10
15906;DHT22;8051;50.820;4.884;2023-06-14T15:53:18;35.70;73.50
15906;DHT22;8051;50.820;4.884;2023-06-14T15:55:46;35.80;71.40
15906;DHT22;8051;50.820;4.884;2023-06-14T15:58:13;35.20;70.90
15906;DHT22;8051;50.820;4.884;2023-06-14T16:00:41;35.30;71.50